Station: PARAWA AWS

  Atmospheric Gas Attenuation - ITU Rec 676-11   --------------- db/100km ---------------
Date Time Temp RH % AH g/m3 Dew Point Wind Direction Speed kph Gust kph Barometer mB Rainfall Since 9am 24GHz 47GHz 76GHz 122GHz 134GHz 241GHz
03 09:30 14.6 75 9.39 10.2 13 19 1021.8 0 21.2 27.3 43.0 112.8 108.6 374.3
03 09:20 14.8 80 10.13 11.5 15 19 1013.1 0 22.8 28.1 45.5 119.7 117.6 405.9
03 09:10 13.8 81 9.65 10.7 11 13 1013.1 0 21.8 27.6 44.1 115.9 112.5 387.9
03 09:00 13.6 84 9.89 11 15 19 1021.6 0 22.3 28.4 45.6 119.9 116.9 403.2
03 08:50 13.5 85 9.94 11 11 13 1013.1 0 22.5 28.2 45.5 119.6 117.0 403.4
03 08:40 14.2 79 9.65 10.6 13 15 1013.1 0 21.8 27.5 43.9 115.3 111.9 385.9
03 08:30 14.9 80 10.2 11.5 11 15 1021.4 0 22.9 28.5 46.2 121.3 119.2 411.4
03 08:20 14.2 80 9.77 10.9 13 15 1013.1 0 22.1 27.7 44.4 116.6 113.6 391.7
03 08:10 14.5 83 10.32 11.6 15 17 1013.1 0 23.2 28.5 46.5 122.3 120.7 416.6
03 08:00 13.8 87 10.37 11.7 9 13 1021.1 0 23.4 29.2 47.5 125.0 123.3 425.5
03 07:50 13.4 91 10.58 11.9 9 11 1013.1 0 23.9 29.3 48.3 127.1 126.2 435.5
03 07:40 13.3 93 10.75 12.2 7 7 1013.1 0 24.2 29.7 49.1 129.2 128.8 444.5
03 07:30 13 93 10.55 11.9 7 11 1020.8 0 23.8 29.7 48.8 128.3 127.2 438.9
03 07:20 12.1 93 9.97 11 7 7 1013.1 0 22.6 28.7 46.4 122.1 119.6 412.3
03 07:10 12.3 94 10.21 11.3 9 11 1013.1 0 23.1 29.1 47.4 124.6 122.7 423.2
03 07:00 12 95 10.13 11.2 11 15 1020.4 0 23.0 29.3 47.6 125.0 122.7 423.2
03 06:50 11.7 95 9.94 10.9 9 11 1013.1 0 22.6 28.8 46.5 122.4 119.8 413.0
03 06:40 11.6 95 9.88 10.8 11 11 1013.1 0 22.5 28.7 46.3 121.9 119.1 410.5
03 06:30 11.9 95 10.06 11.1 9 13 1020.2 0 22.8 29.2 47.3 124.3 121.9 420.2
03 06:20 11.8 95 10 11 7 7 1013.1 0 22.7 28.9 46.7 123.0 120.5 415.4
03 06:10 11.7 94 9.83 10.7 6 6 1013.1 0 22.3 28.6 46.1 121.2 118.2 407.5
03 06:00 11.5 94 9.71 10.6 4 6 1020 0 22.1 28.7 46.0 120.9 117.5 404.8
03 05:50 11.6 94 9.77 10.6 4 4 1013.1 0 22.2 28.5 45.9 120.6 117.5 405.0
03 05:40 11.5 93 9.61 10.4 4 4 1013.1 0 21.9 28.3 45.2 118.9 115.4 397.6
03 05:30 11.5 93 9.61 10.4 6 7 1019.8 0 21.9 28.6 45.6 119.7 116.0 399.7
03 05:20 11.5 93 9.61 10.4 4 4 1013.1 0 21.9 28.3 45.2 118.9 115.4 397.6
03 05:00 11.2 93 9.43 10.1 6 6 1019.4 0 21.5 28.3 44.9 118.0 113.9 392.2
03 04:50 11.4 93 9.55 10.3 4 6 1013.1 0 21.8 28.2 45.0 118.4 114.7 395.2
03 04:40 11.6 93 9.67 10.5 6 6 1013.1 0 22.0 28.4 45.4 119.5 116.1 400.1
03 04:30 11.6 93 9.67 10.5 6 7 1019.3 0 22.0 28.6 45.7 120.2 116.7 402.0
03 04:20 11.5 93 9.61 10.4 7 7 1013.1 0 21.9 28.3 45.2 118.9 115.4 397.6
03 04:10 11.3 92 9.39 10 6 7 1013.1 0 21.4 28.0 44.4 116.7 112.6 387.8
03 04:00 11.4 91 9.34 10 4 6 1019.4 0 21.3 28.1 44.4 116.7 112.3 386.8
03 03:50 11.8 90 9.47 10.3 4 4 1013.1 0 21.6 27.9 44.5 116.9 113.0 389.2
03 03:40 11.8 90 9.47 10.3 4 4 1013.1 0 21.6 27.9 44.5 116.9 113.0 389.2
03 03:30 11.9 91 9.64 10.5 6 9 1019.4 0 21.9 28.5 45.4 119.4 115.8 399.0
03 03:20 11.9 90 9.53 10.3 6 6 1013.1 0 21.7 28.0 44.7 117.4 113.7 391.6
03 03:10 11.7 90 9.41 10.1 7 7 1013.1 0 21.4 27.9 44.3 116.3 112.3 386.8
03 03:00 11.8 89 9.37 10 9 11 1019.5 0 21.3 28.0 44.3 116.5 112.2 386.3
03 02:50 12 89 9.49 10.2 7 9 1013.1 0 21.6 27.9 44.4 116.8 113.0 389.2
03 02:40 12 89 9.49 10.2 9 9 1013.1 0 21.6 27.9 44.4 116.8 113.0 389.2
03 02:30 12 89 9.49 10.2 9 15 1019.6 0 21.6 28.2 44.7 117.5 113.6 391.2
03 02:20 11.9 89 9.43 10.1 7 7 1013.1 0 21.5 27.8 44.2 116.3 112.3 386.7
03 02:10 12 87 9.27 10 7 9 1013.1 0 21.1 27.5 43.5 114.3 109.9 378.5
03 02:00 12.2 88 9.5 10.3 11 15 1019.6 0 21.6 28.1 44.7 117.3 113.4 390.7
03 01:50 12.3 87 9.45 10.3 11 13 1013.1 0 21.5 27.8 44.1 115.9 112.0 385.7
03 01:40 12.4 87 9.51 10.3 13 17 1013.1 0 21.6 27.8 44.3 116.4 112.6 388.1
03 01:30 12.4 87 9.51 10.3 15 22 1019.5 0 21.6 28.1 44.6 117.1 113.2 390.1
03 01:20 12.3 87 9.45 10.2 15 19 1013.1 0 21.5 27.8 44.1 115.9 112.0 385.7
03 01:10 12.2 87 9.39 10.1 13 15 1013.1 0 21.4 27.7 43.9 115.4 111.3 383.3
03 01:00 12.2 87 9.39 10.1 15 22 1019.4 0 21.4 27.9 44.2 116.1 111.8 385.2
03 00:50 12.2 86 9.28 9.9 13 19 1013.1 0 21.1 27.5 43.4 114.1 109.7 378.0
03 00:40 12.2 85 9.17 9.7 22 24 1013.1 0 20.9 27.3 43.0 112.9 108.2 372.6
03 00:30 12.2 86 9.28 9.9 22 30 1019.4 0 21.1 27.7 43.7 114.8 110.3 379.9
03 00:20 12.1 86 9.22 9.8 26 30 1013.1 0 21.0 27.4 43.2 113.6 109.1 375.5
03 00:10 12.1 86 9.22 9.8 20 24 1013.1 0 21.0 27.4 43.2 113.6 109.1 375.5
03 00:00 12.1 87 9.33 10 20 30 1019.5 0 21.2 27.9 44.0 115.6 111.2 382.8
02 23:50 12 87 9.27 9.9 22 28 1013.1 0 21.1 27.5 43.5 114.3 109.9 378.5
02 23:40 11.8 87 9.16 9.8 20 26 1013.1 0 20.9 27.4 43.1 113.4 108.6 374.1
02 23:30 11.5 88 9.09 9.6 19 24 1019.6 0 20.7 27.6 43.3 113.7 108.7 374.1
02 23:20 11.5 87 8.99 9.5 19 22 1013.1 0 20.5 27.2 42.6 111.9 106.7 367.3
02 23:10 11.3 87 8.88 9.3 22 26 1013.1 0 20.3 27.1 42.2 110.9 105.5 362.9
02 23:00 11.2 88 8.92 9.3 22 30 1019.6 0 20.4 27.5 42.8 112.3 106.7 367.2
02 22:50 11.3 87 8.88 9.2 22 28 1013.1 0 20.3 27.1 42.2 110.9 105.5 362.9
02 22:40 11.3 87 8.88 9.2 20 22 1013.1 0 20.3 27.1 42.2 110.9 105.5 362.9
02 22:30 11.4 87 8.93 9.3 20 32 1019.6 0 20.4 27.4 42.7 112.1 106.6 366.8
02 22:20 11.4 86 8.83 9.1 22 26 1013.1 0 20.2 27.0 42.0 110.2 104.6 360.0
02 22:10 11.7 85 8.89 9.2 20 24 1013.1 0 20.3 27.0 42.1 110.5 105.1 361.5
02 22:00 11.8 85 8.95 9.4 24 35 1019.5 0 20.4 27.3 42.6 111.7 106.3 365.8
02 21:50 11.6 85 8.84 9.1 26 32 1013.1 0 20.2 26.9 41.9 110.1 104.5 359.6
02 21:40 11.7 86 9 9.4 24 32 1013.1 0 20.6 27.2 42.5 111.7 106.6 366.8
02 21:30 11.6 86 8.94 9.3 26 35 1019.4 0 20.4 27.4 42.6 111.9 106.4 366.2
02 21:20 11.6 86 8.94 9.3 24 32 1013.1 0 20.4 27.1 42.3 111.2 105.9 364.4
02 21:10 11.4 86 8.83 9.1 22 28 1013.1 0 20.2 27.0 42.0 110.2 104.6 360.0
02 21:00 11.2 86 8.72 8.9 20 28 1019.3 0 20.0 27.1 41.9 110.0 103.9 357.4
02 20:50 11.2 84 8.52 8.7 20 26 1013.1 0 19.5 26.5 40.8 107.1 100.7 346.1
02 20:40 11.2 84 8.52 8.7 24 28 1013.1 0 19.5 26.5 40.8 107.1 100.7 346.1
02 20:30 11.2 84 8.52 8.6 22 33 1019.1 0 19.5 26.8 41.1 107.7 101.2 347.8
02 20:20 11.2 83 8.41 8.4 20 22 1013.1 0 19.3 26.3 40.3 105.9 99.2 340.8
02 20:10 11.2 83 8.41 8.4 22 32 1013.1 0 19.3 26.3 40.3 105.9 99.2 340.8
02 20:00 11.6 81 8.42 8.5 26 37 1018.6 0 19.3 26.4 40.4 106.0 99.2 341.1
02 19:50 11.9 81 8.58 8.7 28 33 1013.1 0 19.6 26.4 40.7 106.8 100.6 345.8
02 19:40 11.9 78 8.26 8.3 28 32 1013.1 0 19.0 25.9 39.4 103.3 96.3 330.7
02 19:30 12.1 78 8.37 8.4 30 41 1018.3 0 19.2 26.2 39.9 104.8 97.9 336.5
02 19:20 12.3 77 8.36 8.5 32 37 1013.1 0 19.1 25.9 39.6 103.8 97.1 333.7
02 19:10 12.6 77 8.52 8.8 26 33 1013.1 0 19.5 26.1 40.1 105.2 98.9 339.9
02 19:00 12.7 75 8.35 8.4 32 43 1017.8 0 19.1 26.0 39.5 103.7 96.8 332.8
02 18:50 12.9 73 8.23 8.3 35 39 1013.1 0 18.8 25.5 38.8 101.6 94.6 325.2
02 18:40 12.9 73 8.23 8.3 28 33 1013.1 0 18.8 25.5 38.8 101.6 94.6 325.2
02 18:30 13.2 75 8.61 8.9 28 43 1017.7 0 19.6 26.3 40.3 105.8 99.7 342.8
02 18:20 13.4 75 8.72 9 30 35 1013.1 0 19.9 26.2 40.5 106.3 100.5 345.8
02 18:10 13.3 74 8.55 8.9 35 39 1013.1 0 19.5 26.0 39.8 104.6 98.4 338.3
02 18:00 13.5 74 8.66 9 30 43 1017.4 0 19.7 26.2 40.4 105.9 99.9 343.7
02 17:50 13.6 74 8.71 9 28 35 1013.1 0 19.8 26.1 40.3 105.9 100.1 344.4
02 17:40 14 74 8.93 9.4 30 37 1013.1 0 20.3 26.4 41.0 107.7 102.5 352.9
02 17:30 13.7 74 8.76 9.2 30 39 1017.1 0 19.9 26.3 40.7 106.7 101.0 347.4
02 17:20 13.8 75 8.94 9.4 30 39 1013.1 0 20.3 26.4 41.2 108.1 102.9 354.3
02 17:10 14.1 74 8.98 9.5 28 39 1013.1 0 20.4 26.4 41.2 108.1 103.0 354.8
02 17:00 14.2 74 9.04 9.6 30 41 1017.1 0 20.5 26.6 41.5 109.1 104.1 358.3
02 16:50 14.3 73 8.97 9.5 28 33 1013.1 0 20.4 26.3 41.0 107.7 102.6 353.4

Last Refresh: 03-Dec-2021 09:42:55

Bureau of Meteorology